Time;durP1;ratioP1;P1;durP2;ratioP2;P2;SDS_P1;SDS_P2;PMS_P1;PMS_P2;Temp;Humidity;BMP_temperature;BMP_pressure;BME280_temperature;BME280_humidity;BME280_pressure;Samples;Min_cycle;Max_cycle;Signal;HPM_P1;HPM_P2
2023/08/25 00:00:39;;;;;;;38.45;24.50;;;;;;;-146.27;99.60;80938.09;5028542;28;20083;-68
2023/08/25 00:03:05;;;;;;;34.72;24.52;;;;;;;-146.27;99.41;80978.28;5024043;28;20037;-68
2023/08/25 00:05:38;;;;;;;41.10;26.38;;;;;;;-146.27;99.72;80950.16;5028064;28;20029;-68
2023/08/25 00:08:05;;;;;;;39.47;24.73;;;;;;;-146.27;99.70;80958.19;5027806;28;20046;-69
2023/08/25 00:10:30;;;;;;;38.17;24.95;;;;;;;-146.27;99.58;81004.38;5023291;28;20111;-69
2023/08/25 00:12:56;;;;;;;38.75;23.67;;;;;;;-146.27;99.39;80964.22;5028170;28;20041;-70
2023/08/25 00:15:21;;;;;;;41.50;25.55;;;;;;;-146.27;99.40;80990.31;5025747;28;20025;-69
2023/08/25 00:17:47;;;;;;;40.05;26.05;;;;;;;-146.27;99.33;81006.38;5021851;28;20036;-68
2023/08/25 00:20:12;;;;;;;40.15;25.67;;;;;;;-146.27;99.11;80994.34;5024204;28;20097;-69
2023/08/25 00:22:38;;;;;;;42.30;25.27;;;;;;;-146.27;99.06;80980.28;5023456;28;20021;-69
2023/08/25 00:25:04;;;;;;;40.47;25.20;;;;;;;-146.27;99.25;80992.31;5027329;28;20133;-69
2023/08/25 00:27:30;;;;;;;38.58;24.77;;;;;;;-146.27;99.09;80962.22;5023739;28;20071;-69
2023/08/25 00:29:55;;;;;;;40.38;25.05;;;;;;;-146.27;98.74;81006.38;5023709;28;20032;-69
2023/08/25 00:32:20;;;;;;;41.38;23.45;;;;;;;-146.27;99.29;81034.50;5026786;28;20029;-70
2023/08/25 00:34:46;;;;;;;36.63;23.65;;;;;;;-146.27;99.20;80982.28;5020599;28;20021;-69
2023/08/25 00:37:11;;;;;;;39.60;23.67;;;;;;;-146.27;98.98;81008.41;5023942;28;20033;-68
2023/08/25 00:39:38;;;;;;;36.70;22.60;;;;;;;-146.27;98.98;81014.41;5022302;28;20064;-69
2023/08/25 00:42:04;;;;;;;35.95;23.90;;;;;;;-146.27;99.30;81006.38;5024211;28;20043;-68
2023/08/25 00:44:29;;;;;;;36.22;23.08;;;;;;;-146.27;99.00;81046.53;5026984;28;20025;-70
2023/08/25 00:46:55;;;;;;;35.38;21.70;;;;;;;-146.27;99.19;81010.41;5029211;28;20018;-69
2023/08/25 00:49:21;;;;;;;37.95;23.45;;;;;;;-146.27;99.25;81082.69;5029478;28;20112;-68
2023/08/25 00:51:47;;;;;;;32.45;20.85;;;;;;;-146.27;99.41;81080.69;5030240;28;20037;-68
2023/08/25 00:54:13;;;;;;;33.83;22.40;;;;;;;-146.27;99.46;81086.72;5028843;28;20053;-68
2023/08/25 00:56:39;;;;;;;38.58;22.08;;;;;;;-146.27;99.31;81134.91;5025500;28;20159;-68
2023/08/25 00:59:04;;;;;;;39.47;22.13;;;;;;;-146.27;98.69;81082.69;5026462;28;20044;-69
2023/08/25 01:01:30;;;;;;;41.97;24.27;;;;;;;-146.27;98.74;81090.72;5027910;28;20033;-67
2023/08/25 01:03:56;;;;;;;38.70;23.15;;;;;;;-146.27;99.31;81126.88;5026219;28;20029;-70
2023/08/25 01:06:22;;;;;;;35.65;22.60;;;;;;;-146.27;99.22;81136.91;5025692;28;20497;-68
2023/08/25 01:08:48;;;;;;;36.42;23.20;;;;;;;-146.27;99.36;81155.00;5025582;28;20064;-68
2023/08/25 01:11:35;;;;;;;34.47;22.02;;;;;;;-146.27;99.23;81163.03;5027708;28;20033;-68
2023/08/25 01:14:07;;;;;;;37.88;22.95;;;;;;;-146.27;99.37;81169.03;5024710;28;20021;-69
2023/08/25 01:16:52;;;;;;;36.80;22.55;;;;;;;-146.27;99.59;81201.19;5024615;28;20052;-68
2023/08/25 01:19:47;;;;;;;32.42;21.35;;;;;;;-146.27;99.51;81118.84;5027016;28;20033;-69
2023/08/25 01:22:16;;;;;;;35.20;23.92;;;;;;;-146.27;99.58;81159.00;5025823;28;20128;-68
2023/08/25 01:24:43;;;;;;;36.70;23.85;;;;;;;-146.27;99.06;81146.97;5025338;28;20033;-69
2023/08/25 01:27:09;;;;;;;41.10;23.80;;;;;;;-146.27;99.17;81187.13;5026141;28;20074;-68
2023/08/25 01:29:35;;;;;;;37.63;23.60;;;;;;;-146.27;99.23;81191.13;5026651;28;20030;-69
2023/08/25 01:32:01;;;;;;;35.67;23.05;;;;;;;-146.27;98.92;81171.06;5027769;28;20026;-70
2023/08/25 01:34:26;;;;;;;37.88;22.58;;;;;;;-146.27;99.46;81201.19;5027168;28;20044;-68
2023/08/25 01:37:10;;;;;;;38.85;23.30;;;;;;;-146.27;99.48;81169.03;5027255;28;20037;-68
2023/08/25 01:39:40;;;;;;;38.60;24.67;;;;;;;-146.27;99.78;81195.16;5024697;28;20564;-68
2023/08/25 01:42:07;;;;;;;40.20;24.67;;;;;;;-146.27;100.00;81173.06;5027993;28;20067;-69
2023/08/25 01:44:35;;;;;;;48.15;28.83;;;;;;;-146.27;100.00;81163.03;5028431;28;20041;-68
2023/08/25 01:47:04;;;;;;;42.10;26.67;;;;;;;-146.27;100.00;81134.91;5026383;28;20389;-70
2023/08/25 01:49:31;;;;;;;42.35;26.38;;;;;;;-146.27;100.00;81199.16;5025106;28;20393;-72
2023/08/25 01:51:58;;;;;;;43.22;26.05;;;;;;;-146.27;99.96;81171.06;5023180;28;20030;-72
2023/08/25 01:54:23;;;;;;;44.22;25.25;;;;;;;-146.27;100.00;81155.00;5029117;28;20037;-70
2023/08/25 01:56:49;;;;;;;43.65;24.13;;;;;;;-146.27;100.00;81138.91;5024729;28;20021;-71
2023/08/25 01:59:14;;;;;;;44.22;24.75;;;;;;;-146.27;99.91;81132.91;5026457;28;20025;-72
2023/08/25 02:01:39;;;;;;;39.58;24.23;;;;;;;-146.27;100.00;81148.97;5026825;28;20025;-72
2023/08/25 02:04:05;;;;;;;38.33;24.70;;;;;;;-146.27;99.99;81150.97;5027547;28;20021;-72
2023/08/25 02:06:31;;;;;;;42.08;24.65;;;;;;;-146.27;99.83;81179.09;5025978;28;20037;-71
2023/08/25 02:08:57;;;;;;;39.17;22.50;;;;;;;-146.27;99.57;81155.00;5025454;28;20108;-72
2023/08/25 02:11:22;;;;;;;38.88;22.90;;;;;;;-146.27;99.63;81155.00;5024172;28;20048;-71
2023/08/25 02:13:47;;;;;;;46.03;24.52;;;;;;;-146.27;99.78;81195.16;5026162;28;20037;-72
2023/08/25 02:16:13;;;;;;;42.45;24.73;;;;;;;-146.27;100.00;81157.00;5027028;28;20021;-72
2023/08/25 02:18:38;;;;;;;44.90;24.98;;;;;;;-146.27;100.00;81173.06;5024367;28;20112;-72
2023/08/25 02:21:03;;;;;;;45.22;25.55;;;;;;;-146.27;100.00;81169.03;5027661;28;20021;-72
2023/08/25 02:23:29;;;;;;;43.97;24.75;;;;;;;-146.27;100.00;81187.13;5021986;28;20033;-72
2023/08/25 02:25:54;;;;;;;41.58;24.50;;;;;;;-146.27;100.00;81140.94;5024990;28;20030;-72
2023/08/25 02:28:20;;;;;;;44.90;24.63;;;;;;;-146.27;100.00;81159.00;5020512;28;20164;-72
2023/08/25 02:30:45;;;;;;;46.50;25.00;;;;;;;-146.27;100.00;81159.00;5019090;28;20125;-72
2023/08/25 02:33:11;;;;;;;48.63;24.80;;;;;;;-146.27;100.00;81126.88;5018684;28;20468;-72
2023/08/25 02:35:37;;;;;;;45.15;25.08;;;;;;;-146.27;99.80;81171.06;5020598;28;20026;-70
2023/08/25 02:38:05;;;;;;;47.00;25.33;;;;;;;-146.27;99.61;81175.06;5023318;28;20083;-72
2023/08/25 02:40:31;;;;;;;43.97;24.65;;;;;;;-146.27;99.78;81189.13;5026469;28;20536;-73
2023/08/25 02:43:02;;;;;;;43.45;24.52;;;;;;;-146.27;99.49;81229.28;5027084;28;20031;-72
2023/08/25 02:45:27;;;;;;;37.80;22.67;;;;;;;-146.27;99.24;81197.16;5024015;28;20256;-72
2023/08/25 02:47:54;;;;;;;36.97;23.52;;;;;;;-146.27;98.77;81219.25;5025687;28;20025;-72
2023/08/25 02:50:21;;;;;;;40.17;22.15;;;;;;;-146.27;98.42;81247.38;5023050;28;20091;-72
2023/08/25 02:52:46;;;;;;;41.75;22.90;;;;;;;-146.27;99.05;81279.50;5026384;28;20022;-72
2023/08/25 02:55:16;;;;;;;47.53;24.85;;;;;;;-146.27;99.16;81259.41;5026690;28;20445;-72
2023/08/25 02:57:45;;;;;;;51.63;27.15;;;;;;;-146.27;99.88;81263.44;5028000;28;20409;-72
2023/08/25 03:00:12;;;;;;;54.00;27.35;;;;;;;-146.27;100.00;81271.47;5022817;28;20029;-72
2023/08/25 03:02:37;;;;;;;49.05;26.52;;;;;;;-146.27;100.00;81219.25;5023437;28;20174;-72
2023/08/25 03:05:04;;;;;;;52.20;27.42;;;;;;;-146.27;100.00;81239.34;5029566;28;20038;-72
2023/08/25 03:07:29;;;;;;;43.05;24.48;;;;;;;-146.27;100.00;81245.34;5029923;28;20167;-72
2023/08/25 03:09:55;;;;;;;47.90;26.30;;;;;;;-146.27;100.00;81267.44;5027934;28;20132;-72
2023/08/25 03:12:20;;;;;;;46.47;25.88;;;;;;;-146.27;100.00;81215.22;5029132;28;20037;-72
2023/08/25 03:14:45;;;;;;;51.85;26.55;;;;;;;-146.27;100.00;81169.03;5027439;28;20691;-72
2023/08/25 03:17:11;;;;;;;48.78;26.08;;;;;;;-146.27;100.00;81223.25;5028309;28;20037;-72
2023/08/25 03:19:40;;;;;;;49.03;25.98;;;;;;;-146.27;100.00;81225.28;5027439;28;20025;-73
2023/08/25 03:22:05;;;;;;;49.45;24.98;;;;;;;-146.27;100.00;81191.13;5028766;28;20026;-72
2023/08/25 03:24:30;;;;;;;48.25;24.67;;;;;;;-146.27;100.00;81110.81;5027688;28;20041;-72
2023/08/25 03:26:57;;;;;;;55.58;26.45;;;;;;;-146.27;100.00;81175.06;5023397;28;20029;-72
2023/08/25 03:29:22;;;;;;;52.45;27.17;;;;;;;-146.27;100.00;81163.03;5027655;28;20033;-72
2023/08/25 03:31:48;;;;;;;49.05;26.17;;;;;;;-146.27;100.00;81189.13;5028865;28;20426;-72
2023/08/25 03:34:13;;;;;;;57.78;27.77;;;;;;;-146.27;100.00;81175.06;5031007;28;20396;-73
2023/08/25 03:36:39;;;;;;;60.83;28.08;;;;;;;-146.27;100.00;81136.91;5028130;28;20038;-72
2023/08/25 03:39:04;;;;;;;58.80;27.38;;;;;;;-146.27;100.00;81152.97;5030566;28;20060;-73
2023/08/25 03:41:30;;;;;;;58.80;28.00;;;;;;;-146.27;100.00;81146.97;5020620;28;20029;-72
2023/08/25 03:43:56;;;;;;;63.58;29.35;;;;;;;-146.27;100.00;81150.97;5029859;28;20120;-72
2023/08/25 03:46:21;;;;;;;58.08;28.98;;;;;;;-146.27;100.00;81114.81;5028881;28;20083;-72
2023/08/25 03:48:46;;;;;;;59.22;28.70;;;;;;;-146.27;100.00;81092.72;5029298;28;20428;-72
2023/08/25 03:51:12;;;;;;;65.78;31.25;;;;;;;-146.27;100.00;81120.84;5023711;28;20051;-72
2023/08/25 03:53:37;;;;;;;58.50;29.55;;;;;;;-146.27;100.00;81122.84;5029473;28;20120;-73
2023/08/25 03:56:04;;;;;;;59.15;29.10;;;;;;;-146.27;100.00;81150.97;5029050;28;20039;-73
2023/08/25 03:58:29;;;;;;;66.60;32.05;;;;;;;-146.27;100.00;81142.94;5028237;28;20029;-72
2023/08/25 04:00:56;;;;;;;63.75;32.00;;;;;;;-146.27;100.00;81122.84;5028707;28;20032;-72
2023/08/25 04:03:22;;;;;;;65.75;33.17;;;;;;;-146.27;100.00;81138.91;5028731;28;20163;-72
2023/08/25 04:05:47;;;;;;;73.63;35.70;;;;;;;-146.27;100.00;81076.66;5028679;28;20029;-72
2023/08/25 04:08:12;;;;;;;74.57;37.05;;;;;;;-146.27;100.00;81128.88;5030048;28;20061;-72
2023/08/25 04:10:41;;;;;;;79.60;37.90;;;;;;;-146.27;100.00;81088.72;5028634;28;20021;-72
2023/08/25 04:13:07;;;;;;;73.05;36.53;;;;;;;-146.27;100.00;81090.72;5029587;28;20163;-72
2023/08/25 04:15:32;;;;;;;75.57;37.38;;;;;;;-146.27;100.00;81072.66;5026995;28;20417;-72
2023/08/25 04:17:58;;;;;;;74.13;37.97;;;;;;;-146.27;100.00;81082.69;5022460;28;20030;-72
2023/08/25 04:20:23;;;;;;;77.85;37.88;;;;;;;-146.27;100.00;81126.88;5021311;28;20482;-72
2023/08/25 04:22:48;;;;;;;79.53;38.15;;;;;;;-146.27;100.00;81094.75;5023206;28;20123;-72
2023/08/25 04:25:14;;;;;;;68.03;34.60;;;;;;;-146.27;100.00;81106.78;5022514;28;20493;-72
2023/08/25 04:27:39;;;;;;;77.05;37.63;;;;;;;-146.27;100.00;81082.69;5021399;28;20060;-72
2023/08/25 04:30:05;;;;;;;72.85;36.17;;;;;;;-146.27;100.00;81080.69;5022552;28;20531;-72
2023/08/25 04:32:31;;;;;;;75.30;36.88;;;;;;;-146.27;100.00;81122.84;5019312;28;20033;-73
2023/08/25 04:34:57;;;;;;;76.57;37.05;;;;;;;-146.27;100.00;81098.75;5025443;28;20056;-72
2023/08/25 04:37:22;;;;;;;79.63;37.08;;;;;;;-146.27;100.00;81070.66;5016181;28;20021;-73
2023/08/25 04:39:47;;;;;;;80.03;37.67;;;;;;;-146.27;100.00;81108.81;5015147;28;20107;-71
2023/08/25 04:42:13;;;;;;;73.97;37.15;;;;;;;-146.27;100.00;81108.81;5028928;28;20060;-72
2023/08/25 04:44:38;;;;;;;78.03;36.45;;;;;;;-146.27;100.00;81090.72;5021319;28;20036;-68
2023/08/25 04:47:03;;;;;;;78.50;35.95;;;;;;;-146.27;100.00;81116.84;5024483;28;20018;-67
2023/08/25 04:49:29;;;;;;;73.80;36.50;;;;;;;-146.27;100.00;81124.88;5023234;28;20037;-67
2023/08/25 04:51:55;;;;;;;78.28;35.65;;;;;;;-146.27;100.00;81078.69;5022490;28;20033;-66
2023/08/25 04:54:20;;;;;;;74.05;35.08;;;;;;;-146.27;100.00;81106.78;5025443;28;20563;-67
2023/08/25 04:56:46;;;;;;;70.97;33.88;;;;;;;-146.27;100.00;81066.63;5020564;28;20490;-67
2023/08/25 04:59:11;;;;;;;67.18;34.28;;;;;;;-146.27;100.00;81122.84;5028502;28;20047;-67
2023/08/25 05:01:37;;;;;;;72.95;33.47;;;;;;;-146.27;100.00;81078.69;5030789;28;20026;-67
2023/08/25 05:04:02;;;;;;;69.20;32.78;;;;;;;-146.27;100.00;81066.63;5028032;28;20017;-68
2023/08/25 05:06:28;;;;;;;70.93;34.33;;;;;;;-146.27;100.00;81094.75;5023378;28;20469;-67
2023/08/25 05:08:54;;;;;;;77.45;34.72;;;;;;;-146.27;100.00;81070.66;5023363;28;20060;-68
2023/08/25 05:11:20;;;;;;;65.25;33.50;;;;;;;-146.27;100.00;81084.69;5029156;28;20029;-68
2023/08/25 05:13:46;;;;;;;73.38;33.15;;;;;;;-146.27;100.00;81118.84;5028463;28;20389;-68
2023/08/25 05:16:12;;;;;;;50.20;25.40;;;;;;;-146.27;100.00;81058.59;5028844;28;20021;-69
2023/08/25 05:18:37;;;;;;;56.63;24.23;;;;;;;-146.27;100.00;81122.84;5030678;28;20396;-67
2023/08/25 05:21:03;;;;;;;49.08;24.48;;;;;;;-146.27;100.00;81126.88;5027814;28;20032;-68
2023/08/25 05:23:29;;;;;;;52.08;23.55;;;;;;;-146.27;100.00;81074.66;5028988;28;20029;-68
2023/08/25 05:25:55;;;;;;;46.38;23.17;;;;;;;-146.27;100.00;81090.72;5023610;28;20045;-68
2023/08/25 05:28:21;;;;;;;44.10;21.17;;;;;;;-146.27;100.00;81078.69;5029039;28;20032;-68
2023/08/25 05:30:48;;;;;;;37.13;18.90;;;;;;;-146.27;100.00;81086.72;5026270;28;20021;-67
2023/08/25 05:33:14;;;;;;;34.78;19.23;;;;;;;-146.27;100.00;81058.59;5026790;28;20021;-68
2023/08/25 05:35:39;;;;;;;39.55;19.83;;;;;;;-146.27;100.00;81096.75;5027085;28;20037;-68
2023/08/25 05:38:05;;;;;;;32.20;18.45;;;;;;;-146.27;100.00;81078.69;5027808;28;20040;-67
2023/08/25 05:40:30;;;;;;;39.50;19.58;;;;;;;-146.27;100.00;81052.56;5029080;28;20090;-68
2023/08/25 05:42:56;;;;;;;35.35;18.75;;;;;;;-146.27;100.00;81038.50;5024020;28;20021;-68
2023/08/25 05:45:21;;;;;;;38.28;19.92;;;;;;;-146.27;100.00;81078.69;5028727;28;20025;-68
2023/08/25 05:47:46;;;;;;;35.83;19.35;;;;;;;-146.27;100.00;81074.66;5030051;28;20497;-68
2023/08/25 05:50:12;;;;;;;33.80;18.33;;;;;;;-146.27;99.89;81052.56;5030073;28;20044;-68
2023/08/25 05:52:39;;;;;;;34.83;19.98;;;;;;;-146.27;100.00;81104.78;5029440;28;20028;-68
2023/08/25 05:55:05;;;;;;;41.40;21.23;;;;;;;-146.27;99.83;81064.63;5027143;28;20381;-68
2023/08/25 05:57:31;;;;;;;39.25;21.90;;;;;;;-146.27;99.97;81090.72;5028857;28;20059;-67
2023/08/25 05:59:58;;;;;;;40.47;21.67;;;;;;;-146.27;99.94;81060.59;5028087;28;20022;-67
2023/08/25 06:02:23;;;;;;;36.15;21.35;;;;;;;-146.27;99.88;81046.53;5008692;28;20042;-68
2023/08/25 06:04:49;;;;;;;45.00;22.48;;;;;;;-146.27;99.58;81028.47;5026242;28;20111;-67
2023/08/25 06:07:14;;;;;;;44.90;23.88;;;;;;;-146.27;99.30;81030.47;5027105;28;20020;-67
2023/08/25 06:09:39;;;;;;;55.58;24.65;;;;;;;-146.27;99.11;81042.53;5028383;28;20497;-66
2023/08/25 06:12:05;;;;;;;46.28;24.73;;;;;;;-146.27;98.98;81014.41;5026018;28;20126;-69
2023/08/25 06:14:31;;;;;;;41.25;22.55;;;;;;;-146.27;98.98;81022.44;5026999;28;20033;-70
2023/08/25 06:17:00;;;;;;;42.03;23.92;;;;;;;-146.27;99.17;81000.34;5028343;28;20025;-68
2023/08/25 06:19:26;;;;;;;46.90;26.10;;;;;;;-146.27;99.58;81002.38;5025329;28;20033;-69
2023/08/25 06:21:51;;;;;;;44.85;25.15;;;;;;;-146.27;99.03;80974.25;5026046;28;20041;-69
2023/08/25 06:24:17;;;;;;;46.78;25.92;;;;;;;-146.27;98.91;80946.13;5026960;28;20116;-69
2023/08/25 06:26:42;;;;;;;43.78;25.85;;;;;;;-146.27;98.67;80986.31;5025270;28;20035;-69
2023/08/25 06:29:08;;;;;;;48.13;25.40;;;;;;;-146.27;98.60;80994.34;5026394;28;20632;-68
2023/08/25 06:31:34;;;;;;;48.53;26.05;;;;;;;-146.27;98.09;80910.00;5028471;28;20039;-69
2023/08/25 06:34:03;;;;;;;42.22;24.73;;;;;;;-146.27;98.17;80964.22;5026947;28;20112;-68
2023/08/25 06:36:30;;;;;;;50.03;25.70;;;;;;;-146.27;97.58;80978.28;5024745;28;20112;-68
2023/08/25 06:38:56;;;;;;;45.60;26.30;;;;;;;-146.27;97.84;80940.13;5031576;28;20392;-68
2023/08/25 06:41:21;;;;;;;44.33;26.45;;;;;;;-146.27;97.92;80930.06;5031388;28;20458;-67
2023/08/25 06:43:47;;;;;;;41.28;24.48;;;;;;;-146.27;97.58;80918.03;5030955;28;20104;-67
2023/08/25 06:46:12;;;;;;;40.85;23.65;;;;;;;-146.27;96.29;80910.00;5032662;28;20113;-66
2023/08/25 06:48:37;;;;;;;42.72;25.30;;;;;;;-146.27;96.04;80930.06;5031683;28;20033;-66
2023/08/25 06:51:03;;;;;;;45.25;26.30;;;;;;;-146.27;95.72;80918.03;5032524;28;20406;-68
2023/08/25 06:53:28;;;;;;;40.55;23.90;;;;;;;-146.27;95.32;80922.03;5032615;28;20093;-67
2023/08/25 06:55:53;;;;;;;45.35;25.73;;;;;;;-146.27;95.21;80934.09;5033325;28;20026;-68
2023/08/25 06:58:19;;;;;;;44.15;24.48;;;;;;;-146.27;94.85;80914.00;5032703;28;20495;-67
2023/08/25 07:00:44;;;;;;;45.67;26.25;;;;;;;-146.27;95.13;80936.09;5031908;28;20026;-68
2023/08/25 07:03:09;;;;;;;46.17;26.90;;;;;;;-146.27;95.45;80946.13;5033254;28;20505;-66
2023/08/25 07:05:38;;;;;;;45.08;27.17;;;;;;;-146.27;95.93;80914.00;5033100;28;20494;-66
2023/08/25 07:08:05;;;;;;;47.90;27.20;;;;;;;-146.27;95.30;80932.09;5032943;28;20044;-68
2023/08/25 07:10:30;;;;;;;46.42;27.60;;;;;;;-146.27;95.20;80918.03;5032965;28;20029;-67
2023/08/25 07:12:55;;;;;;;42.28;25.95;;;;;;;-146.27;95.24;80901.97;5031280;28;20028;-67
2023/08/25 07:15:21;;;;;;;52.00;26.67;;;;;;;-146.27;94.82;80899.97;5033008;28;20036;-67
2023/08/25 07:17:47;;;;;;;43.40;27.65;;;;;;;-146.27;94.66;80940.13;5032223;28;20033;-68
2023/08/25 07:20:13;;;;;;;44.13;25.90;;;;;;;-146.27;94.19;80936.09;5032607;28;20397;-68
2023/08/25 07:22:39;;;;;;;50.50;26.75;;;;;;;-146.27;94.35;80940.13;5032829;28;20029;-67
2023/08/25 07:25:05;;;;;;;45.13;26.40;;;;;;;-146.27;94.57;80922.03;5032741;28;20029;-68
2023/08/25 07:27:30;;;;;;;47.97;27.15;;;;;;;-146.27;95.65;80905.97;5031753;28;20017;-68
2023/08/25 07:29:56;;;;;;;51.03;27.35;;;;;;;-146.27;94.98;80877.88;5030384;28;20075;-67
2023/08/25 07:32:21;;;;;;;47.42;26.20;;;;;;;-146.27;95.18;80825.66;5032552;28;20033;-67
2023/08/25 07:34:47;;;;;;;43.55;26.23;;;;;;;-146.27;95.60;80835.69;5032445;28;20476;-67
2023/08/25 07:37:12;;;;;;;44.58;23.50;;;;;;;-146.27;95.48;80843.72;5031188;28;20034;-67
2023/08/25 07:39:39;;;;;;;37.30;22.27;;;;;;;-146.27;94.96;80777.47;5031144;28;20112;-67
2023/08/25 07:42:05;;;;;;;43.83;24.02;;;;;;;-146.27;95.23;80827.66;5030831;28;20086;-66
2023/08/25 07:44:30;;;;;;;35.80;20.58;;;;;;;-146.27;94.34;80765.41;5031121;28;20030;-66
2023/08/25 07:46:55;;;;;;;33.47;18.95;;;;;;;-146.27;93.08;80817.63;5030718;28;20032;-66
2023/08/25 07:49:21;;;;;;;37.90;20.40;;;;;;;-146.27;93.28;80821.63;5028176;28;20033;-67
2023/08/25 07:51:46;;;;;;;34.05;20.40;;;;;;;-146.27;93.76;80793.53;5029033;28;20027;-67
2023/08/25 07:54:11;;;;;;;32.85;20.52;;;;;;;-146.27;92.87;80821.63;5025816;28;20493;-68
2023/08/25 07:56:37;;;;;;;35.97;21.52;;;;;;;-146.27;91.87;80889.91;5027593;28;20029;-68
2023/08/25 07:59:03;;;;;;;34.50;19.52;;;;;;;-146.27;92.51;80855.78;5032111;28;20660;-68
2023/08/25 08:01:28;;;;;;;38.80;18.60;;;;;;;-146.27;92.32;80849.75;5031339;28;20125;-70
2023/08/25 08:03:53;;;;;;;32.78;19.58;;;;;;;-146.27;92.64;80801.56;5031185;28;20041;-68
2023/08/25 08:06:19;;;;;;;32.67;18.27;;;;;;;-146.27;92.11;80859.78;5031706;28;20029;-67
2023/08/25 08:08:44;;;;;;;30.02;17.58;;;;;;;-146.27;91.47;80887.91;5030590;28;20168;-66
2023/08/25 08:11:10;;;;;;;33.58;17.27;;;;;;;-146.27;91.20;80851.75;5032015;28;20025;-66
2023/08/25 08:13:35;;;;;;;26.83;16.95;;;;;;;-146.27;91.56;80839.72;5031898;28;20079;-66
2023/08/25 08:16:01;;;;;;;34.03;16.58;;;;;;;-146.27;91.10;80855.78;5032052;28;20035;-67
2023/08/25 08:18:26;;;;;;;27.52;16.35;;;;;;;-146.27;91.51;80853.78;5031684;28;20037;-67
2023/08/25 08:20:52;;;;;;;30.77;17.17;;;;;;;-146.27;92.13;80769.44;5031737;28;20029;-67
2023/08/25 08:23:17;;;;;;;27.60;15.52;;;;;;;-146.27;92.30;80793.53;5031542;28;20432;-67
2023/08/25 08:25:42;;;;;;;24.63;13.77;;;;;;;-146.27;91.15;80781.47;5031708;28;20484;-67
2023/08/25 08:28:08;;;;;;;28.65;15.88;;;;;;;-146.27;91.90;80757.38;5031524;28;20026;-66
2023/08/25 08:30:35;;;;;;;27.80;16.27;;;;;;;-146.27;89.86;80743.34;5030493;28;20035;-67
2023/08/25 08:33:00;;;;;;;27.10;14.90;;;;;;;-146.27;91.03;80691.13;5031707;28;20025;-67
2023/08/25 08:35:26;;;;;;;30.55;16.33;;;;;;;-146.27;90.14;80659.00;5031378;28;20071;-67
2023/08/25 08:37:51;;;;;;;24.63;13.73;;;;;;;-146.27;89.26;80638.91;5031025;28;20025;-69
2023/08/25 08:40:17;;;;;;;27.25;14.35;;;;;;;-146.27;89.81;80644.94;5031501;28;20052;-67
2023/08/25 08:42:45;;;;;;;22.10;12.75;;;;;;;-146.27;89.62;80584.69;5031254;28;20383;-68
2023/08/25 08:45:11;;;;;;;22.65;12.88;;;;;;;-146.27;87.63;80608.78;5031093;28;20043;-67
2023/08/25 08:47:37;;;;;;;17.55;12.18;;;;;;;-146.27;86.77;80630.88;5031290;28;20120;-68
2023/08/25 08:50:06;;;;;;;24.98;13.77;;;;;;;-146.27;87.94;80594.75;5028209;28;20041;-68
2023/08/25 08:52:32;;;;;;;26.67;13.23;;;;;;;-146.27;89.42;80576.66;5029552;28;20041;-67
2023/08/25 08:54:59;;;;;;;20.20;10.90;;;;;;;-146.27;88.08;80518.44;5029535;28;20037;-68
2023/08/25 08:57:28;;;;;;;20.80;12.05;;;;;;;-146.27;86.86;80492.34;5029252;28;20120;-69
2023/08/25 08:59:58;;;;;;;24.15;13.00;;;;;;;-146.27;86.01;80436.13;5029733;28;20075;-70
2023/08/25 09:02:27;;;;;;;25.38;12.90;;;;;;;-146.27;84.69;80416.03;5028952;28;20112;-67
2023/08/25 09:04:54;;;;;;;26.15;12.60;;;;;;;-146.27;84.37;80410.03;5030641;28;20116;-67
2023/08/25 09:07:26;;;;;;;20.85;11.90;;;;;;;-146.27;83.54;80436.13;5030884;28;20025;-68
2023/08/25 09:09:51;;;;;;;23.05;11.10;;;;;;;-146.27;82.95;80442.16;5029837;28;20073;-68
2023/08/25 09:12:18;;;;;;;19.67;12.13;;;;;;;-146.27;82.41;80444.16;5029502;28;20441;-69
2023/08/25 09:14:43;;;;;;;19.67;11.30;;;;;;;-146.27;83.91;80460.22;5029786;28;20022;-67
2023/08/25 09:17:13;;;;;;;23.38;12.85;;;;;;;-146.27;83.88;80526.47;5030721;28;20043;-68
2023/08/25 09:19:38;;;;;;;25.38;13.60;;;;;;;-146.27;83.17;80468.25;5030560;28;20026;-68
2023/08/25 09:22:05;;;;;;;23.90;12.52;;;;;;;-146.27;83.72;80516.44;5030571;28;20033;-68
2023/08/25 09:24:33;;;;;;;23.83;13.88;;;;;;;-146.27;82.64;80492.34;5030302;28;20116;-68
2023/08/25 09:26:58;;;;;;;26.38;12.43;;;;;;;-146.27;82.06;80544.53;5030574;28;20038;-68
2023/08/25 09:29:23;;;;;;;22.83;11.50;;;;;;;-146.27;81.73;80552.56;5030344;28;20151;-68
2023/08/25 09:31:49;;;;;;;18.88;10.40;;;;;;;-146.27;82.63;80574.66;5030403;28;20022;-67
2023/08/25 09:34:14;;;;;;;21.42;12.60;;;;;;;-146.27;81.75;80556.59;5026384;28;20439;-68
2023/08/25 09:37:09;;;;;;;18.08;10.77;;;;;;;-146.27;81.73;80548.56;5026476;28;20040;-67
2023/08/25 09:39:45;;;;;;;21.20;11.98;;;;;;;-146.27;81.54;80508.41;5023820;28;20045;-68
2023/08/25 09:42:10;;;;;;;19.90;12.07;;;;;;;-146.27;81.71;80516.44;5028957;28;20534;-68
2023/08/25 09:44:36;;;;;;;23.50;13.13;;;;;;;-146.27;81.59;80452.19;5028978;28;20099;-68
2023/08/25 09:47:04;;;;;;;21.80;12.27;;;;;;;-146.27;81.65;80434.13;5029392;28;20112;-68
2023/08/25 09:49:38;;;;;;;26.17;12.30;;;;;;;-146.27;80.56;80397.97;5028641;28;20048;-67
2023/08/25 09:52:05;;;;;;;24.60;12.82;;;;;;;-146.27;80.67;80309.63;5030153;28;20022;-68
2023/08/25 09:54:33;;;;;;;23.95;11.88;;;;;;;-146.27;80.39;80279.50;5026757;28;20116;-68
2023/08/25 09:56:59;;;;;;;17.92;10.63;;;;;;;-146.27;80.04;80267.47;5028922;28;20024;-68
2023/08/25 09:59:24;;;;;;;22.25;10.60;;;;;;;-146.27;78.35;80239.34;5029856;28;20673;-68
2023/08/25 10:01:50;;;;;;;22.00;12.27;;;;;;;-146.27;79.09;80120.91;5030028;28;20040;-66
2023/08/25 10:04:16;;;;;;;21.10;10.73;;;;;;;-146.27;77.37;80092.78;5029763;28;20550;-66
2023/08/25 10:06:42;;;;;;;18.08;10.10;;;;;;;-146.27;77.12;79980.38;5029587;28;20025;-67
2023/08/25 10:09:08;;;;;;;15.60;8.18;;;;;;;-146.27;76.06;79932.19;5029913;28;20045;-67
2023/08/25 10:11:43;;;;;;;15.80;8.18;;;;;;;-146.27;76.80;79841.84;5029452;28;20029;-68
2023/08/25 10:14:10;;;;;;;20.30;9.05;;;;;;;-146.27;74.71;79789.66;5033048;28;20373;-68
2023/08/25 10:16:52;;;;;;;14.20;7.82;;;;;;;-146.27;75.32;79665.19;5032611;28;20025;-67
2023/08/25 10:19:25;;;;;;;18.75;9.40;;;;;;;-146.27;72.45;79639.09;5031655;28;20052;-68
2023/08/25 10:21:52;;;;;;;15.50;9.10;;;;;;;-146.27;73.84;79617.00;5032967;28;20087;-67
2023/08/25 10:24:28;;;;;;;14.65;8.27;;;;;;;-146.27;74.66;79568.84;5045951;28;20519;-68
2023/08/25 10:26:54;;;;;;;17.58;8.70;;;;;;;-146.27;72.76;79568.84;5029426;28;20089;-67
2023/08/25 10:29:21;;;;;;;17.60;8.07;;;;;;;-146.27;73.66;79528.69;5032476;28;20030;-67
2023/08/25 10:31:48;;;;;;;16.40;8.27;;;;;;;-146.27;72.95;79480.50;5024607;28;20026;-67
2023/08/25 10:34:42;;;;;;;19.85;8.88;;;;;;;-146.27;71.12;79438.34;5033637;28;20034;-66
2023/08/25 10:37:23;;;;;;;15.63;7.68;;;;;;;-146.27;70.48;79508.59;5033872;28;20029;-67
2023/08/25 10:40:06;;;;;;;16.35;8.93;;;;;;;-146.27;71.23;79600.94;5032497;28;20061;-69
2023/08/25 10:42:33;;;;;;;16.30;9.73;;;;;;;-146.27;71.22;79829.81;5031035;28;20400;-68
2023/08/25 10:45:09;;;;;;;25.98;10.48;;;;;;;-146.27;71.35;79849.88;5033682;28;20026;-67
2023/08/25 10:47:45;;;;;;;18.00;8.88;;;;;;;-146.27;75.01;79910.09;5033564;28;20025;-67
2023/08/25 10:50:11;;;;;;;21.77;9.88;;;;;;;-146.27;73.93;79910.09;5032995;28;20036;-67
2023/08/25 10:52:43;;;;;;;19.63;10.52;;;;;;;-146.27;75.34;79950.25;5033223;28;20033;-66
2023/08/25 10:55:29;;;;;;;16.53;8.03;;;;;;;-146.27;75.21;79938.22;5033759;28;20119;-68
2023/08/25 10:58:06;;;;;;;15.13;9.05;;;;;;;-146.27;75.14;79954.28;5032975;28;20545;-68